Time;durP1;ratioP1;P1;durP2;ratioP2;P2;SDS_P1;SDS_P2;PMS_P1;PMS_P2;Temp;Humidity;BMP_temperature;BMP_pressure;BME280_temperature;BME280_humidity;BME280_pressure;Samples;Min_cycle;Max_cycle;Signal;HPM_P1;HPM_P2
2023/12/22 00:00:16;;;;;;;;;;;;;;;1.04;68.67;98996.19;106527;1270;107900;-67
2023/12/22 00:03:05;;;;;;;;;;;;;;;1.01;68.84;98994.77;106469;1270;109498;-67
2023/12/22 00:05:33;;;;;;;;;;;;;;;1.00;68.96;98990.25;106524;1270;97981;-67
2023/12/22 00:08:02;;;;;;;;;;;;;;;1.00;69.02;98987.52;106556;1270;97778;-67
2023/12/22 00:10:31;;;;;;;;;;;;;;;0.99;69.10;98989.48;106506;1271;111472;-67
2023/12/22 00:12:59;;;;;;;;;;;;;;;0.99;69.10;98987.72;106490;1270;108013;-66
2023/12/22 00:15:27;;;;;;;;;;;;;;;0.99;69.09;98976.64;106432;1269;107832;-66
2023/12/22 00:17:55;;;;;;;;;;;;;;;0.98;68.91;98971.75;106499;1268;97884;-66
2023/12/22 00:20:23;;;;;;;;;;;;;;;0.98;69.10;98970.52;106502;1269;97915;-67
2023/12/22 00:22:51;;;;;;;;;;;;;;;0.98;69.12;98966.42;106492;1268;112182;-66
2023/12/22 00:25:20;;;;;;;;;;;;;;;0.98;69.14;98961.83;106474;1271;108451;-66
2023/12/22 00:27:48;;;;;;;;;;;;;;;0.98;69.20;98962.92;106499;1270;107622;-65
2023/12/22 00:30:17;;;;;;;;;;;;;;;0.98;69.38;98964.14;106506;1268;97874;-66
2023/12/22 00:32:45;;;;;;;;;;;;;;;0.97;69.46;98953.09;106497;1268;97872;-67
2023/12/22 00:35:13;;;;;;;;;;;;;;;0.99;69.44;98945.89;106446;1268;111803;-67
2023/12/22 00:37:41;;;;;;;;;;;;;;;1.09;69.94;98939.44;106517;1271;108413;-67
2023/12/22 00:40:10;;;;;;;;;;;;;;;1.26;69.81;98931.80;106522;1268;107878;-67
2023/12/22 00:42:38;;;;;;;;;;;;;;;1.47;69.77;98927.31;106424;1271;97880;-66
2023/12/22 00:45:06;;;;;;;;;;;;;;;1.75;68.98;98921.52;106482;1273;97872;-66
2023/12/22 00:47:35;;;;;;;;;;;;;;;2.06;68.13;98914.02;106431;1268;111526;-66
2023/12/22 00:50:05;;;;;;;;;;;;;;;2.33;67.02;98903.98;106420;1268;108112;-67
2023/12/22 00:52:33;;;;;;;;;;;;;;;2.59;66.36;98903.05;106426;1268;108225;-66
2023/12/22 00:55:02;;;;;;;;;;;;;;;2.80;65.70;98897.37;106451;1269;97850;-66
2023/12/22 00:57:31;;;;;;;;;;;;;;;2.98;66.13;98889.77;106561;1271;97876;-66
2023/12/22 00:59:59;;;;;;;;;;;;;;;3.11;66.15;98883.88;106567;1269;111484;-66
2023/12/22 01:02:27;;;;;;;;;;;;;;;3.21;66.40;98880.38;106474;1268;108778;-66
2023/12/22 01:04:56;;;;;;;;;;;;;;;3.29;66.04;98874.00;106409;1271;108426;-65
2023/12/22 01:07:25;;;;;;;;;;;;;;;3.35;65.88;98867.94;106480;1273;97869;-67
2023/12/22 01:09:54;;;;;;;;;;;;;;;3.42;65.95;98857.93;106495;1268;97866;-67
2023/12/22 01:12:22;;;;;;;;;;;;;;;3.49;65.96;98850.73;106497;1272;111218;-68
2023/12/22 01:14:51;;;;;;;;;;;;;;;3.58;65.88;98847.13;106489;1269;108569;-67
2023/12/22 01:17:19;;;;;;;;;;;;;;;3.66;65.28;98837.69;106495;1268;107256;-67
2023/12/22 01:19:48;;;;;;;;;;;;;;;3.75;65.21;98836.19;106461;1268;98587;-67
2023/12/22 01:22:16;;;;;;;;;;;;;;;3.82;64.45;98829.39;106504;1268;97846;-67
2023/12/22 01:24:45;;;;;;;;;;;;;;;3.87;63.89;98815.05;106486;1269;111510;-66
2023/12/22 01:27:13;;;;;;;;;;;;;;;3.94;63.54;98806.66;106531;1268;107530;-66
2023/12/22 01:29:41;;;;;;;;;;;;;;;4.00;63.62;98800.74;106493;1268;108537;-67
2023/12/22 01:32:10;;;;;;;;;;;;;;;4.06;63.12;98798.73;106538;1268;97897;-65
2023/12/22 01:34:38;;;;;;;;;;;;;;;4.14;62.08;98794.36;106491;1270;98037;-67
2023/12/22 01:37:06;;;;;;;;;;;;;;;4.23;60.73;98789.27;106507;1269;112072;-66
2023/12/22 01:39:34;;;;;;;;;;;;;;;4.32;59.12;98788.70;106518;1268;107772;-66
2023/12/22 01:42:03;;;;;;;;;;;;;;;4.44;58.50;98781.02;106501;1268;107781;-66
2023/12/22 01:44:31;;;;;;;;;;;;;;;4.55;58.54;98779.31;106455;1268;97977;-68
2023/12/22 01:46:59;;;;;;;;;;;;;;;4.63;57.64;98771.80;106515;1273;97882;-65
2023/12/22 01:49:29;;;;;;;;;;;;;;;4.71;57.33;98767.14;106461;1269;112671;-67
2023/12/22 01:51:57;;;;;;;;;;;;;;;4.78;57.65;98764.71;106544;1268;108256;-66
2023/12/22 01:54:26;;;;;;;;;;;;;;;4.81;57.93;98757.16;106456;1273;107876;-66
2023/12/22 01:56:54;;;;;;;;;;;;;;;4.84;58.13;98763.95;106509;1268;97847;-67
2023/12/22 01:59:23;;;;;;;;;;;;;;;4.87;57.65;98757.44;106519;1268;97919;-67
2023/12/22 02:01:52;;;;;;;;;;;;;;;4.89;57.92;98752.79;106499;1268;111742;-66
2023/12/22 02:04:20;;;;;;;;;;;;;;;4.90;58.21;98758.16;106504;1270;106656;-66
2023/12/22 02:06:48;;;;;;;;;;;;;;;4.92;57.74;98764.58;106517;1272;108017;-66
2023/12/22 02:09:16;;;;;;;;;;;;;;;4.94;57.21;98765.50;106489;1268;97955;-66
2023/12/22 02:11:45;;;;;;;;;;;;;;;4.97;57.40;98758.27;106516;1272;97870;-66
2023/12/22 02:14:13;;;;;;;;;;;;;;;5.00;56.25;98759.14;106478;1268;111855;-68
2023/12/22 02:16:47;;;;;;;;;;;;;;;5.07;55.91;98749.84;106477;1268;107940;-67
2023/12/22 02:19:36;;;;;;;;;;;;;;;5.11;56.60;98744.40;106520;1268;108376;-67
2023/12/22 02:22:07;;;;;;;;;;;;;;;5.12;56.95;98736.71;106386;1268;97991;-67
2023/12/22 02:24:37;;;;;;;;;;;;;;;5.10;57.18;98728.08;106503;1268;97846;-67
2023/12/22 02:27:14;;;;;;;;;;;;;;;5.08;56.83;98725.23;106514;1269;112268;-68
2023/12/22 02:29:47;;;;;;;;;;;;;;;5.08;55.76;98719.14;106524;1268;107457;-67
2023/12/22 02:32:23;;;;;;;;;;;;;;;5.10;55.61;98716.33;106476;1269;108493;-66
2023/12/22 02:34:53;;;;;;;;;;;;;;;5.11;55.69;98712.47;106525;1268;97868;-67
2023/12/22 02:37:23;;;;;;;;;;;;;;;5.16;54.94;98708.80;106459;1268;97893;-66
2023/12/22 02:39:52;;;;;;;;;;;;;;;5.21;53.96;98703.01;106497;1268;111787;-66
2023/12/22 02:42:23;;;;;;;;;;;;;;;5.24;53.87;98699.30;106506;1272;109196;-66
2023/12/22 02:44:51;;;;;;;;;;;;;;;5.25;54.06;98698.44;106494;1268;107677;-66
2023/12/22 02:47:19;;;;;;;;;;;;;;;5.25;54.54;98696.35;106423;1268;97901;-67
2023/12/22 02:49:47;;;;;;;;;;;;;;;5.23;54.79;98696.31;106541;1272;97847;-66
2023/12/22 02:52:16;;;;;;;;;;;;;;;5.21;55.12;98685.38;106523;1268;111503;-66
2023/12/22 02:54:44;;;;;;;;;;;;;;;5.16;55.53;98687.43;106522;1268;108024;-67
2023/12/22 02:57:12;;;;;;;;;;;;;;;5.13;55.55;98685.95;106503;1270;108651;-67
2023/12/22 02:59:41;;;;;;;;;;;;;;;5.10;55.82;98676.25;106545;1268;97874;-67
2023/12/22 03:02:09;;;;;;;;;;;;;;;5.09;55.93;98670.74;106489;1268;98055;-67
2023/12/22 03:04:37;;;;;;;;;;;;;;;5.06;56.36;98664.27;106548;1268;111635;-67
2023/12/22 03:07:05;;;;;;;;;;;;;;;5.07;56.69;98659.90;106531;1268;107306;-66
2023/12/22 03:09:34;;;;;;;;;;;;;;;5.06;56.83;98660.77;106489;1268;107757;-66
2023/12/22 03:12:06;;;;;;;;;;;;;;;4.99;57.03;98664.99;106469;1268;98331;-66
2023/12/22 03:14:35;;;;;;;;;;;;;;;4.90;56.93;98662.65;106495;1268;97897;-65
2023/12/22 03:17:04;;;;;;;;;;;;;;;4.80;57.22;98667.00;106480;1268;111612;-65
2023/12/22 03:19:33;;;;;;;;;;;;;;;4.65;57.62;98669.38;106511;1268;108663;-65
2023/12/22 03:22:02;;;;;;;;;;;;;;;4.52;57.93;98662.26;106475;1268;106766;-67
2023/12/22 03:24:30;;;;;;;;;;;;;;;4.40;58.29;98657.39;106448;1268;98668;-66
2023/12/22 03:26:58;;;;;;;;;;;;;;;4.33;58.78;98650.00;106517;1268;97884;-67
2023/12/22 03:29:26;;;;;;;;;;;;;;;4.28;58.52;98638.82;106516;1268;111951;-66
2023/12/22 03:31:55;;;;;;;;;;;;;;;4.22;58.87;98633.59;106517;1268;107862;-66
2023/12/22 03:34:23;;;;;;;;;;;;;;;4.16;59.30;98630.26;106465;1272;108530;-66
2023/12/22 03:36:51;;;;;;;;;;;;;;;4.11;59.59;98630.92;106398;1268;97913;-66
2023/12/22 03:39:19;;;;;;;;;;;;;;;4.08;59.65;98620.70;106492;1268;97748;-67
2023/12/22 03:41:48;;;;;;;;;;;;;;;4.07;59.93;98610.86;106473;1268;112007;-67
2023/12/22 03:44:16;;;;;;;;;;;;;;;4.04;59.96;98607.52;106525;1268;107508;-66
2023/12/22 03:46:44;;;;;;;;;;;;;;;4.02;59.92;98600.48;106487;1269;107699;-66
2023/12/22 03:49:12;;;;;;;;;;;;;;;3.99;60.31;98599.33;106503;1268;97898;-66
2023/12/22 03:51:41;;;;;;;;;;;;;;;3.98;60.70;98596.06;106488;1268;97772;-67
2023/12/22 03:54:10;;;;;;;;;;;;;;;3.96;60.59;98591.34;106468;1268;110878;-67
2023/12/22 03:56:38;;;;;;;;;;;;;;;3.95;60.74;98585.77;106463;1268;107952;-67
2023/12/22 03:59:06;;;;;;;;;;;;;;;3.93;60.72;98576.17;106485;1268;108111;-67
2023/12/22 04:01:35;;;;;;;;;;;;;;;3.90;61.06;98570.05;106516;1271;97865;-65
2023/12/22 04:04:03;;;;;;;;;;;;;;;3.89;60.88;98559.14;106502;1268;97855;-67
2023/12/22 04:06:31;;;;;;;;;;;;;;;3.90;61.25;98548.27;106506;1268;111653;-66
2023/12/22 04:08:59;;;;;;;;;;;;;;;3.90;61.22;98546.25;106556;1269;108397;-67
2023/12/22 04:11:27;;;;;;;;;;;;;;;3.92;61.02;98537.98;106472;1268;107791;-67
2023/12/22 04:13:55;;;;;;;;;;;;;;;3.95;61.23;98534.35;106470;1268;97898;-66
2023/12/22 04:16:24;;;;;;;;;;;;;;;3.97;61.27;98532.55;106490;1268;97775;-66
2023/12/22 04:18:52;;;;;;;;;;;;;;;3.98;61.14;98527.84;106503;1268;110795;-66
2023/12/22 04:21:20;;;;;;;;;;;;;;;4.00;61.28;98524.38;106511;1268;107440;-67
2023/12/22 04:23:48;;;;;;;;;;;;;;;4.02;61.18;98521.19;106458;1269;108631;-67
2023/12/22 04:26:17;;;;;;;;;;;;;;;4.04;61.33;98514.77;106451;1268;97890;-66
2023/12/22 04:28:45;;;;;;;;;;;;;;;4.06;61.09;98506.25;106502;1268;97823;-67
2023/12/22 04:31:13;;;;;;;;;;;;;;;4.08;61.13;98505.73;106506;1268;111534;-66
2023/12/22 04:33:41;;;;;;;;;;;;;;;4.09;61.03;98500.65;106508;1268;107694;-66
2023/12/22 04:36:09;;;;;;;;;;;;;;;4.12;61.10;98504.85;106514;1268;107760;-66
2023/12/22 04:38:40;;;;;;;;;;;;;;;4.16;60.98;98508.01;106531;1268;97879;-67
2023/12/22 04:41:08;;;;;;;;;;;;;;;4.23;60.33;98509.27;106510;1268;97943;-68
2023/12/22 04:43:36;;;;;;;;;;;;;;;4.30;60.18;98498.09;106449;1268;112040;-67
2023/12/22 04:46:04;;;;;;;;;;;;;;;4.36;59.96;98497.48;106506;1268;108609;-67
2023/12/22 04:48:33;;;;;;;;;;;;;;;4.39;60.11;98491.34;106432;1268;108281;-67
2023/12/22 04:51:01;;;;;;;;;;;;;;;4.39;60.13;98490.77;106467;1272;97173;-66
2023/12/22 04:53:30;;;;;;;;;;;;;;;4.40;60.46;98484.65;106604;1268;97878;-67
2023/12/22 04:55:58;;;;;;;;;;;;;;;4.43;60.57;98486.54;106505;1268;112135;-67
2023/12/22 04:58:26;;;;;;;;;;;;;;;4.44;60.43;98481.06;106479;1268;108379;-67
2023/12/22 05:00:55;;;;;;;;;;;;;;;4.44;60.88;98476.50;106517;1268;107309;-66
2023/12/22 05:03:23;;;;;;;;;;;;;;;4.43;60.86;98478.95;106452;1268;97843;-65
2023/12/22 05:05:51;;;;;;;;;;;;;;;4.38;60.86;98486.83;106537;1272;97764;-65
2023/12/22 05:08:20;;;;;;;;;;;;;;;4.33;60.89;98496.34;106484;1268;111957;-68
2023/12/22 05:10:48;;;;;;;;;;;;;;;4.29;60.87;98490.40;106487;1268;108428;-66
2023/12/22 05:13:16;;;;;;;;;;;;;;;4.26;61.06;98496.89;106463;1268;107735;-67
2023/12/22 05:15:45;;;;;;;;;;;;;;;4.23;61.25;98494.68;106522;1268;97907;-66
2023/12/22 05:18:13;;;;;;;;;;;;;;;4.21;61.21;98505.33;106477;1268;98018;-67
2023/12/22 05:20:43;;;;;;;;;;;;;;;4.21;61.53;98506.77;106519;1268;111765;-67
2023/12/22 05:23:11;;;;;;;;;;;;;;;4.23;61.56;98504.26;106502;1272;106967;-68
2023/12/22 05:25:40;;;;;;;;;;;;;;;4.22;61.78;98495.13;106440;1270;107838;-66
2023/12/22 05:28:09;;;;;;;;;;;;;;;4.21;61.85;98486.94;106443;1268;97884;-66
2023/12/22 05:30:37;;;;;;;;;;;;;;;4.20;61.68;98488.27;106579;1268;97910;-66
2023/12/22 05:33:05;;;;;;;;;;;;;;;4.18;61.73;98489.00;106463;1268;110741;-65
2023/12/22 05:35:33;;;;;;;;;;;;;;;4.17;61.84;98486.48;106540;1268;107875;-65
2023/12/22 05:38:06;;;;;;;;;;;;;;;4.19;61.80;98486.16;106518;1268;108145;-66
2023/12/22 05:40:34;;;;;;;;;;;;;;;4.25;61.81;98483.65;106510;1273;97873;-68
2023/12/22 05:43:03;;;;;;;;;;;;;;;4.30;61.60;98478.94;106476;1268;97733;-66
2023/12/22 05:45:31;;;;;;;;;;;;;;;4.34;61.20;98468.01;106569;1268;111507;-66
2023/12/22 05:47:59;;;;;;;;;;;;;;;4.40;60.85;98464.22;106502;1268;107685;-67
2023/12/22 05:50:28;;;;;;;;;;;;;;;4.47;60.79;98457.68;106482;1268;107953;-68
2023/12/22 05:52:56;;;;;;;;;;;;;;;4.52;60.42;98453.26;106441;1268;97948;-65
2023/12/22 05:55:24;;;;;;;;;;;;;;;4.56;60.14;98450.23;106522;1268;97836;-67
2023/12/22 05:57:53;;;;;;;;;;;;;;;4.60;60.29;98451.12;106515;1269;111557;-65
2023/12/22 06:00:22;;;;;;;;;;;;;;;4.64;60.54;98449.60;106658;1268;108901;-65
2023/12/22 06:02:50;;;;;;;;;;;;;;;4.70;60.60;98449.58;106498;1268;107878;-65
2023/12/22 06:05:18;;;;;;;;;;;;;;;4.74;60.44;98446.48;106476;1268;97975;-65
2023/12/22 06:07:47;;;;;;;;;;;;;;;4.77;60.36;98449.05;106525;1268;97872;-65
2023/12/22 06:10:15;;;;;;;;;;;;;;;4.78;60.14;98444.16;106523;1268;111441;-65
2023/12/22 06:12:44;;;;;;;;;;;;;;;4.79;60.13;98442.97;106514;1268;108452;-64
2023/12/22 06:15:12;;;;;;;;;;;;;;;4.82;59.63;98427.36;106474;1268;108511;-67
2023/12/22 06:17:40;;;;;;;;;;;;;;;4.85;59.45;98420.20;106484;1268;98113;-65
2023/12/22 06:20:09;;;;;;;;;;;;;;;4.86;59.28;98425.06;106515;1268;97887;-68
2023/12/22 06:22:37;;;;;;;;;;;;;;;4.89;58.95;98424.15;106519;1268;110702;-66
2023/12/22 06:25:07;;;;;;;;;;;;;;;4.95;57.56;98417.89;106500;1268;108141;-65
2023/12/22 06:27:36;;;;;;;;;;;;;;;5.04;57.15;98415.21;106521;1268;107516;-65
2023/12/22 06:30:05;;;;;;;;;;;;;;;5.13;57.24;98415.19;106512;1268;97891;-66
2023/12/22 06:32:33;;;;;;;;;;;;;;;5.22;56.51;98410.33;106534;1268;97976;-66
2023/12/22 06:35:02;;;;;;;;;;;;;;;5.32;55.72;98408.23;106438;1271;111180;-65
2023/12/22 06:37:30;;;;;;;;;;;;;;;5.41;55.99;98400.58;106478;1270;108752;-65
2023/12/22 06:39:58;;;;;;;;;;;;;;;5.52;54.87;98395.50;106488;1269;107753;-66
2023/12/22 06:42:27;;;;;;;;;;;;;;;5.62;54.68;98398.54;106505;1268;97860;-66
2023/12/22 06:44:55;;;;;;;;;;;;;;;5.74;54.14;98396.02;106498;1268;98073;-66
2023/12/22 06:47:23;;;;;;;;;;;;;;;5.83;54.00;98394.73;106512;1268;112066;-65
2023/12/22 06:49:52;;;;;;;;;;;;;;;5.87;54.19;98390.54;106504;1268;108025;-66
2023/12/22 06:52:21;;;;;;;;;;;;;;;5.93;54.01;98393.48;106471;1268;107913;-66
2023/12/22 06:54:49;;;;;;;;;;;;;;;6.02;53.81;98396.15;106485;1268;97881;-66
2023/12/22 06:57:17;;;;;;;;;;;;;;;6.09;53.90;98395.57;106491;1268;97743;-68
2023/12/22 06:59:50;;;;;;;;;;;;;;;6.18;53.73;98393.56;106527;1268;111878;-68
2023/12/22 07:02:20;;;;;;;;;;;;;;;6.24;53.78;98389.99;106472;1268;107168;-66
2023/12/22 07:05:10;;;;;;;;;;;;;;;6.29;53.71;98393.38;106505;1268;108392;-67
2023/12/22 07:07:38;;;;;;;;;;;;;;;6.38;53.40;98395.48;106527;1268;97973;-68
2023/12/22 07:10:07;;;;;;;;;;;;;;;6.45;53.17;98387.18;106505;1268;97775;-66
2023/12/22 07:12:35;;;;;;;;;;;;;;;6.51;53.09;98367.61;106462;1268;111915;-67
2023/12/22 07:15:04;;;;;;;;;;;;;;;6.58;52.90;98369.41;106545;1268;108269;-66
2023/12/22 07:17:32;;;;;;;;;;;;;;;6.66;52.59;98366.02;106504;1272;107648;-65
2023/12/22 07:20:03;;;;;;;;;;;;;;;6.72;52.39;98360.16;106515;1268;97841;-66
2023/12/22 07:22:31;;;;;;;;;;;;;;;6.79;52.45;98359.23;106528;1268;97894;-66
2023/12/22 07:24:59;;;;;;;;;;;;;;;6.84;52.29;98363.00;106477;1268;110535;-68
2023/12/22 07:27:27;;;;;;;;;;;;;;;6.86;52.39;98356.30;106487;1268;108889;-65
2023/12/22 07:29:56;;;;;;;;;;;;;;;6.86;52.37;98358.85;106494;1268;108565;-66
2023/12/22 07:32:24;;;;;;;;;;;;;;;6.87;52.57;98362.00;106487;1268;97859;-65
2023/12/22 07:34:52;;;;;;;;;;;;;;;6.90;52.67;98365.02;106510;1268;97773;-67
2023/12/22 07:37:20;;;;;;;;;;;;;;;6.87;52.81;98371.84;106509;1268;111106;-68
2023/12/22 07:39:50;;;;;;;;;;;;;;;6.89;52.71;98375.61;106538;1268;108853;-67
2023/12/22 07:42:19;;;;;;;;;;;;;;;6.89;52.85;98382.39;106478;1268;106592;-67
2023/12/22 07:44:47;;;;;;;;;;;;;;;6.88;53.10;98403.27;106403;1268;97859;-68
2023/12/22 07:47:15;;;;;;;;;;;;;;;6.91;52.89;98399.66;106472;1268;97894;-68
2023/12/22 07:49:44;;;;;;;;;;;;;;;6.93;52.76;98381.98;106473;1268;111580;-67
2023/12/22 07:52:14;;;;;;;;;;;;;;;6.91;52.91;98380.88;106488;1268;108270;-66
2023/12/22 07:54:43;;;;;;;;;;;;;;;6.93;53.00;98379.77;106435;1272;108715;-65
2023/12/22 07:57:11;;;;;;;;;;;;;;;6.95;53.01;98381.04;106385;1268;97933;-67
2023/12/22 07:59:40;;;;;;;;;;;;;;;6.96;53.02;98382.35;106517;1268;97953;-66
2023/12/22 08:02:08;;;;;;;;;;;;;;;6.95;53.24;98376.60;106452;1268;111783;-65
2023/12/22 08:04:36;;;;;;;;;;;;;;;6.97;53.16;98377.23;106524;1272;109260;-66
2023/12/22 08:07:05;;;;;;;;;;;;;;;6.97;53.40;98384.52;106419;1268;108286;-66
2023/12/22 08:09:33;;;;;;;;;;;;;;;6.99;53.74;98383.56;106383;1268;97847;-67
2023/12/22 08:12:02;;;;;;;;;;;;;;;7.06;53.42;98384.25;106546;1268;97751;-67
2023/12/22 08:14:32;;;;;;;;;;;;;;;7.11;53.65;98389.73;106504;1268;111655;-67
2023/12/22 08:17:00;;;;;;;;;;;;;;;7.14;53.58;98389.77;106450;1268;107950;-68
2023/12/22 08:19:29;;;;;;;;;;;;;;;7.20;53.60;98387.70;106502;1268;107951;-67
2023/12/22 08:21:59;;;;;;;;;;;;;;;7.31;53.21;98386.05;106468;1268;97974;-66
2023/12/22 08:24:32;;;;;;;;;;;;;;;7.41;53.31;98376.87;106487;1268;97770;-66
2023/12/22 08:27:00;;;;;;;;;;;;;;;7.53;53.41;98375.59;106462;1268;111965;-67
2023/12/22 08:29:28;;;;;;;;;;;;;;;7.68;53.08;98367.67;106473;1268;108255;-66
2023/12/22 08:31:57;;;;;;;;;;;;;;;7.81;52.84;98359.89;106383;1268;107273;-67
2023/12/22 08:34:25;;;;;;;;;;;;;;;7.98;52.22;98354.67;106434;1268;97889;-67
2023/12/22 08:36:53;;;;;;;;;;;;;;;8.08;52.15;98358.80;106443;1268;97878;-66
2023/12/22 08:39:21;;;;;;;;;;;;;;;8.10;52.19;98351.18;106440;1268;112010;-66
2023/12/22 08:41:50;;;;;;;;;;;;;;;8.21;51.84;98339.50;106418;1268;108750;-66
2023/12/22 08:44:19;;;;;;;;;;;;;;;8.35;51.69;98321.84;106448;1268;108350;-68
2023/12/22 08:46:47;;;;;;;;;;;;;;;8.47;51.06;98306.15;106388;1268;97841;-68
2023/12/22 08:49:16;;;;;;;;;;;;;;;8.51;50.89;98312.73;106396;1268;97875;-67
2023/12/22 08:51:44;;;;;;;;;;;;;;;8.48;50.99;98328.73;106500;1268;110734;-66
2023/12/22 08:54:12;;;;;;;;;;;;;;;8.45;51.32;98336.23;106464;1268;107566;-68
2023/12/22 08:56:41;;;;;;;;;;;;;;;8.44;51.03;98333.64;106461;1272;107826;-66
2023/12/22 08:59:09;;;;;;;;;;;;;;;8.36;51.24;98337.83;106460;1268;98397;-67
2023/12/22 09:01:38;;;;;;;;;;;;;;;8.30;51.28;98339.55;106469;1268;97883;-67
2023/12/22 09:04:06;;;;;;;;;;;;;;;8.24;51.73;98337.77;106393;1268;111818;-65
2023/12/22 09:06:37;;;;;;;;;;;;;;;8.20;51.68;98342.56;106488;1268;107469;-67
2023/12/22 09:09:06;;;;;;;;;;;;;;;8.13;51.86;98338.53;106446;1268;108229;-66
2023/12/22 09:11:34;;;;;;;;;;;;;;;8.07;52.09;98340.33;106452;1268;97931;-67
2023/12/22 09:14:05;;;;;;;;;;;;;;;8.02;52.23;98340.70;106490;1268;97720;-66
2023/12/22 09:16:34;;;;;;;;;;;;;;;7.96;52.63;98340.71;106504;1272;111310;-66
2023/12/22 09:19:02;;;;;;;;;;;;;;;7.94;52.52;98339.89;106430;1271;109083;-69
2023/12/22 09:21:30;;;;;;;;;;;;;;;7.91;52.60;98326.14;106337;1271;108504;-68
2023/12/22 09:23:59;;;;;;;;;;;;;;;7.88;52.92;98319.16;106419;1270;97870;-67
2023/12/22 09:26:27;;;;;;;;;;;;;;;7.87;52.82;98320.67;106391;1270;97733;-66
2023/12/22 09:28:57;;;;;;;;;;;;;;;7.83;53.11;98323.45;106414;1268;110768;-67
2023/12/22 09:31:25;;;;;;;;;;;;;;;7.83;53.08;98325.52;106467;1270;108214;-67
2023/12/22 09:33:53;;;;;;;;;;;;;;;7.81;53.29;98319.88;106374;1271;106866;-66
2023/12/22 09:36:21;;;;;;;;;;;;;;;7.82;53.36;98308.39;106371;1270;97882;-66
2023/12/22 09:38:50;;;;;;;;;;;;;;;7.83;53.45;98297.71;106428;1270;96424;-65
2023/12/22 09:41:18;;;;;;;;;;;;;;;7.86;53.47;98300.67;106385;1275;112029;-65
2023/12/22 09:43:49;;;;;;;;;;;;;;;7.87;53.63;98300.00;106387;1270;108375;-65
2023/12/22 09:46:20;;;;;;;;;;;;;;;7.91;53.81;98306.95;106449;1268;107648;-66
2023/12/22 09:48:52;;;;;;;;;;;;;;;7.97;53.86;98311.79;106454;1272;97929;-65
2023/12/22 09:51:21;;;;;;;;;;;;;;;8.05;54.00;98312.83;106565;1270;97965;-65
2023/12/22 09:53:49;;;;;;;;;;;;;;;8.14;53.99;98315.48;106379;1270;111895;-68
2023/12/22 09:56:18;;;;;;;;;;;;;;;8.22;54.01;98318.74;106404;1270;107689;-66
2023/12/22 09:58:47;;;;;;;;;;;;;;;8.29;53.90;98320.05;106383;1270;107719;-69
2023/12/22 10:01:16;;;;;;;;;;;;;;;8.37;54.00;98312.58;106420;1270;97876;-68
2023/12/22 10:03:44;;;;;;;;;;;;;;;8.47;53.73;98319.56;106369;1270;97885;-66
2023/12/22 10:06:16;;;;;;;;;;;;;;;8.55;53.40;98327.77;106407;1270;112107;-67
2023/12/22 10:08:50;;;;;;;;;;;;;;;8.59;52.68;98331.70;106440;1270;107911;-66
2023/12/22 10:11:20;;;;;;;;;;;;;;;8.59;52.63;98330.80;106413;1270;106863;-66
2023/12/22 10:13:52;;;;;;;;;;;;;;;8.57;52.84;98333.40;106401;1269;97915;-67
2023/12/22 10:16:21;;;;;;;;;;;;;;;8.56;52.80;98330.46;105816;1270;745810;-66
2023/12/22 10:18:49;;;;;;;;;;;;;;;8.57;52.49;98334.50;106424;1268;111248;-65
2023/12/22 10:21:19;;;;;;;;;;;;;;;8.53;52.82;98333.67;106449;1271;110762;-66
2023/12/22 10:23:47;;;;;;;;;;;;;;;8.48;52.79;98336.29;106477;1268;108144;-66
2023/12/22 10:26:16;;;;;;;;;;;;;;;8.47;52.98;98343.17;106465;1268;98963;-66
2023/12/22 10:28:46;;;;;;;;;;;;;;;8.45;53.14;98342.20;106446;1268;97886;-67
2023/12/22 10:31:15;;;;;;;;;;;;;;;8.46;52.95;98338.74;106460;1268;111715;-69
2023/12/22 10:33:43;;;;;;;;;;;;;;;8.43;52.93;98328.91;106488;1272;107895;-69
2023/12/22 10:36:12;;;;;;;;;;;;;;;8.43;53.01;98328.95;106462;1268;108334;-66
2023/12/22 10:38:40;;;;;;;;;;;;;;;8.41;53.17;98327.98;106496;1268;97987;-67
2023/12/22 10:41:08;;;;;;;;;;;;;;;8.37;53.26;98327.31;106468;1273;97904;-67
2023/12/22 10:43:38;;;;;;;;;;;;;;;8.37;53.27;98323.36;106426;1268;111914;-66
2023/12/22 10:46:08;;;;;;;;;;;;;;;8.42;53.11;98322.80;106380;1268;108785;-67
2023/12/22 10:48:36;;;;;;;;;;;;;;;8.44;53.07;98310.39;106517;1268;107193;-66
2023/12/22 10:51:08;;;;;;;;;;;;;;;8.49;52.92;98295.98;106492;1268;97862;-66
2023/12/22 10:53:40;;;;;;;;;;;;;;;8.56;52.83;98286.52;106500;1268;97857;-65
2023/12/22 10:56:08;;;;;;;;;;;;;;;8.63;52.95;98284.55;106512;1268;110961;-64
2023/12/22 10:58:36;;;;;;;;;;;;;;;8.68;52.81;98294.15;106521;1268;108875;-65
2023/12/22 11:01:07;;;;;;;;;;;;;;;8.77;52.64;98301.23;106442;1268;107824;-65
2023/12/22 11:03:39;;;;;;;;;;;;;;;8.84;52.71;98295.55;106500;1268;97865;-66
2023/12/22 11:06:10;;;;;;;;;;;;;;;8.99;52.61;98284.23;106496;1271;98136;-64
2023/12/22 11:08:40;;;;;;;;;;;;;;;9.13;51.92;98280.36;106518;1268;111333;-69
2023/12/22 11:11:23;;;;;;;;;;;;;;;9.20;51.87;98283.11;106511;1268;107488;-66
2023/12/22 11:13:53;;;;;;;;;;;;;;;9.24;52.11;98294.48;106409;1268;108176;-68
2023/12/22 11:16:23;;;;;;;;;;;;;;;9.26;51.77;98292.06;106459;1268;97878;-66
2023/12/22 11:18:54;;;;;;;;;;;;;;;9.26;51.27;98285.82;106475;1268;97973;-66
2023/12/22 11:21:24;;;;;;;;;;;;;;;9.24;50.72;98293.33;106492;1268;111836;-65
2023/12/22 11:23:53;;;;;;;;;;;;;;;9.18;49.90;98299.30;106504;1268;107481;-66
2023/12/22 11:26:21;;;;;;;;;;;;;;;9.12;49.70;98307.57;106432;1268;108131;-65
2023/12/22 11:28:51;;;;;;;;;;;;;;;9.05;49.03;98300.52;106488;1268;97872;-65
2023/12/22 11:31:23;;;;;;;;;;;;;;;9.02;49.09;98307.62;106442;1270;97863;-64
2023/12/22 11:33:51;;;;;;;;;;;;;;;9.00;48.74;98301.15;106476;1272;112053;-66
2023/12/22 11:36:31;;;;;;;;;;;;;;;8.96;48.11;98297.98;106426;1270;107660;-65
2023/12/22 11:39:00;;;;;;;;;;;;;;;8.93;48.01;98303.71;106412;1268;106630;-66
2023/12/22 11:41:30;;;;;;;;;;;;;;;8.91;48.37;98311.95;106498;1268;97847;-70
2023/12/22 11:43:59;;;;;;;;;;;;;;;8.90;49.00;98323.85;106507;1268;97771;-67
2023/12/22 11:46:29;;;;;;;;;;;;;;;8.87;49.22;98346.04;106480;1268;111688;-65
2023/12/22 11:48:58;;;;;;;;;;;;;;;8.82;50.88;98352.80;106414;1268;107460;-66
2023/12/22 11:51:31;;;;;;;;;;;;;;;8.71;51.98;98369.77;106454;1273;109771;-65
2023/12/22 11:53:59;;;;;;;;;;;;;;;8.59;53.48;98375.15;106514;1268;97952;-66
2023/12/22 11:56:28;;;;;;;;;;;;;;;8.37;55.11;98367.35;106462;1268;97731;-66
2023/12/22 11:58:59;;;;;;;;;;;;;;;8.09;55.92;98379.88;106484;1268;111537;-65
2023/12/22 12:01:31;;;;;;;;;;;;;;;7.81;57.15;98395.89;106551;1268;107765;-66
2023/12/22 12:04:05;;;;;;;;;;;;;;;7.57;58.67;98417.36;106466;1268;106733;-65
2023/12/22 12:06:36;;;;;;;;;;;;;;;7.31;59.84;98431.84;106501;1268;97894;-64
2023/12/22 12:09:08;;;;;;;;;;;;;;;6.99;59.79;98435.45;106413;1268;98399;-64
2023/12/22 12:12:02;;;;;;;;;;;;;;;6.71;60.31;98448.14;106508;1268;110756;-64
2023/12/22 12:14:40;;;;;;;;;;;;;;;6.44;60.61;98466.21;106494;1268;107868;-66
2023/12/22 12:17:09;;;;;;;;;;;;;;;6.25;61.08;98472.48;106511;1268;108222;-66
2023/12/22 12:19:38;;;;;;;;;;;;;;;6.07;61.77;98480.24;106496;1273;97866;-66
2023/12/22 12:22:07;;;;;;;;;;;;;;;5.89;62.67;98498.35;106521;1268;97804;-66
2023/12/22 12:24:36;;;;;;;;;;;;;;;5.71;63.43;98509.98;106441;1268;111790;-68
2023/12/22 12:27:04;;;;;;;;;;;;;;;5.55;63.37;98531.50;106416;1268;108032;-67
2023/12/22 12:29:33;;;;;;;;;;;;;;;5.44;64.07;98541.94;106473;1268;107249;-66
2023/12/22 12:32:05;;;;;;;;;;;;;;;5.32;64.18;98552.70;106498;1268;97982;-65
2023/12/22 12:34:34;;;;;;;;;;;;;;;5.24;64.61;98559.41;106488;1268;97857;-66
2023/12/22 12:37:03;;;;;;;;;;;;;;;5.17;64.85;98559.00;106509;1268;111526;-66
2023/12/22 12:39:34;;;;;;;;;;;;;;;5.12;64.82;98567.90;106450;1268;107699;-67
2023/12/22 12:42:06;;;;;;;;;;;;;;;5.03;65.14;98576.66;106497;1268;107791;-67
2023/12/22 12:44:35;;;;;;;;;;;;;;;4.94;65.20;98584.09;106463;1268;97844;-66
2023/12/22 12:47:14;;;;;;;;;;;;;;;4.88;65.65;98593.55;106508;1273;97881;-67
2023/12/22 12:49:43;;;;;;;;;;;;;;;4.86;65.76;98598.20;106509;1268;112960;-66